Terminal Aerodrome Forecast
Issued by NWS Shreveport, LA

Home | Current Version | Previous Version | Text Only | Print | Product List | Glossary On
Versions: 1 2 3 4 5 6 7 8 9 10 11 12 13 14 15 16
000
FTUS44 KSHV 201729
TAFTXK
TAF
KTXK 201729Z 2018/2118 17008KT P6SM OVC012
     FM202100 16008KT 5SM BR OVC015
     FM210000 16010KT 5SM BR OVC008
     FM210600 17011KT 4SM BR OVC004
     FM211300 17012G18KT P6SM OVC004=

USA.gov is the U.S. government's official web portal to all federal, state and local government web resources and services.